createdAt,value
2018-04-04T00:02:01.717Z,3.87
2018-04-04T00:04:29.181Z,3.90
2018-04-04T00:06:56.749Z,3.73
2018-04-04T00:09:24.278Z,4.17
2018-04-04T00:11:51.735Z,3.80
2018-04-04T00:14:19.201Z,3.83
2018-04-04T00:16:46.728Z,3.50
2018-04-04T00:19:14.127Z,3.30
2018-04-04T00:21:42.496Z,3.40
2018-04-04T00:24:10.109Z,3.10
2018-04-04T00:26:37.678Z,3.47
2018-04-04T00:29:05.316Z,2.83
2018-04-04T00:31:33.060Z,2.77
2018-04-04T00:34:00.578Z,2.93
2018-04-04T00:36:28.123Z,3.00
2018-04-04T00:38:55.664Z,3.50
2018-04-04T00:41:23.890Z,3.27
2018-04-04T00:43:51.907Z,2.97
2018-04-04T00:46:19.837Z,3.50
2018-04-04T00:48:47.323Z,3.20
2018-04-04T00:51:14.757Z,3.33
2018-04-04T00:53:42.380Z,3.70
2018-04-04T00:56:09.809Z,3.20
2018-04-04T00:58:37.404Z,3.67
2018-04-04T01:01:04.865Z,3.50
2018-04-04T01:03:32.388Z,3.10
2018-04-04T01:06:00.750Z,3.10
2018-04-04T01:08:28.970Z,3.47
2018-04-04T01:10:56.413Z,2.90
2018-04-04T01:13:23.942Z,3.77
2018-04-04T01:15:51.449Z,3.50
2018-04-04T01:18:19.124Z,3.53
2018-04-04T01:20:46.617Z,3.30
2018-04-04T01:23:14.070Z,3.30
2018-04-04T01:25:41.559Z,3.37
2018-04-04T01:28:09.017Z,3.93
2018-04-04T01:30:36.484Z,3.33
2018-04-04T01:33:04.022Z,3.97
2018-04-04T01:35:31.482Z,3.90
2018-04-04T01:37:58.918Z,3.80
2018-04-04T01:40:26.366Z,3.60
2018-04-04T01:42:53.816Z,3.10
2018-04-04T01:53:11.805Z,3.30
2018-04-04T01:55:39.230Z,3.90
2018-04-04T01:58:06.712Z,3.20
2018-04-04T02:00:34.173Z,3.67
2018-04-04T02:03:01.730Z,4.10
2018-04-04T02:05:29.187Z,3.90
2018-04-04T02:07:56.648Z,3.47
2018-04-04T02:10:24.109Z,3.27
2018-04-04T02:12:51.619Z,3.10
2018-04-04T02:15:19.081Z,3.30
2018-04-04T02:17:46.559Z,3.40
2018-04-04T02:20:14.026Z,4.30
2018-04-04T02:22:41.507Z,3.83
2018-04-04T02:25:08.962Z,4.03
2018-04-04T02:27:36.438Z,4.00
2018-04-04T02:30:03.956Z,3.93
2018-04-04T02:32:31.417Z,3.60
2018-04-04T02:34:58.873Z,3.50
2018-04-04T02:37:26.338Z,3.67
2018-04-04T02:39:53.883Z,3.40
2018-04-04T02:42:21.448Z,3.90
2018-04-04T02:44:48.927Z,3.70
2018-04-04T02:47:16.383Z,4.00
2018-04-04T02:49:43.846Z,4.00
2018-04-04T02:52:11.294Z,3.10
2018-04-04T02:54:40.260Z,3.80
2018-04-04T02:57:07.834Z,3.50
2018-04-04T02:59:35.301Z,4.47
2018-04-04T03:02:02.759Z,3.73
2018-04-04T03:04:30.216Z,4.47
2018-04-04T03:06:57.698Z,3.70
2018-04-04T03:09:25.155Z,4.00
2018-04-04T03:11:52.620Z,3.93
2018-04-04T03:14:20.064Z,3.90
2018-04-04T03:16:48.068Z,3.43
2018-04-04T03:19:15.527Z,3.87
2018-04-04T03:21:42.992Z,5.00
2018-04-04T03:24:10.465Z,4.47
2018-04-04T03:26:37.998Z,4.20
2018-04-04T03:29:05.487Z,4.43
2018-04-04T03:31:33.622Z,4.67
2018-04-04T03:34:01.078Z,4.83
2018-04-04T03:36:28.658Z,5.77
2018-04-04T03:38:56.213Z,5.37
2018-04-04T03:41:23.657Z,6.40
2018-04-04T03:43:51.707Z,6.30
2018-04-04T03:46:19.212Z,6.20
2018-04-04T03:48:46.689Z,11.43
2018-04-04T03:51:14.163Z,14.17
2018-04-04T03:53:41.647Z,14.97
2018-04-04T03:56:09.108Z,15.57
2018-04-04T03:58:36.582Z,13.37
2018-04-04T04:01:04.022Z,11.10
2018-04-04T04:03:31.566Z,6.13
2018-04-04T04:05:59.121Z,5.90
2018-04-04T04:08:26.579Z,5.30
2018-04-04T04:10:54.163Z,5.50
2018-04-04T04:13:21.614Z,10.67
2018-04-04T04:15:49.114Z,11.87
2018-04-04T04:18:16.579Z,21.07
2018-04-04T04:20:44.065Z,20.27
2018-04-04T04:23:11.550Z,16.00
2018-04-04T04:25:39.767Z,12.80
2018-04-04T04:28:07.282Z,21.10
2018-04-04T04:30:34.787Z,15.70
2018-04-04T04:33:02.378Z,10.63
2018-04-04T04:35:29.937Z,9.00
2018-04-04T04:37:57.521Z,6.87
2018-04-04T04:40:25.054Z,6.03
2018-04-04T04:42:52.522Z,5.47
2018-04-04T04:45:19.976Z,4.80
2018-04-04T04:47:47.454Z,4.90
2018-04-04T04:50:14.927Z,4.63
2018-04-04T04:52:42.420Z,4.30
2018-04-04T04:55:09.870Z,4.77
2018-04-04T04:57:37.862Z,4.30
2018-04-04T05:00:07.188Z,4.37
2018-04-04T05:02:34.653Z,4.93
2018-04-04T05:05:02.260Z,5.37
2018-04-04T05:07:30.299Z,5.63
2018-04-04T05:09:58.611Z,5.20
2018-04-04T05:12:26.102Z,4.60
2018-04-04T05:14:53.618Z,5.27
2018-04-04T05:17:21.322Z,5.83
2018-04-04T05:19:48.945Z,5.20
2018-04-04T05:22:16.454Z,4.90
2018-04-04T05:24:43.941Z,5.00
2018-04-04T05:27:11.396Z,5.03
2018-04-04T05:29:38.923Z,5.40
2018-04-04T05:32:06.391Z,4.90
2018-04-04T05:34:33.878Z,6.00
2018-04-04T05:37:01.330Z,5.40
2018-04-04T05:39:28.827Z,5.33
2018-04-04T05:41:56.564Z,6.17
2018-04-04T05:44:24.088Z,6.90
2018-04-04T05:46:51.607Z,8.13
2018-04-04T05:49:19.047Z,7.63
2018-04-04T05:51:46.584Z,7.50
2018-04-04T05:54:14.030Z,7.90
2018-04-04T05:56:41.607Z,6.70
2018-04-04T05:59:09.184Z,6.20
2018-04-04T06:01:37.137Z,5.80
2018-04-04T06:04:04.591Z,5.30
2018-04-04T06:06:32.368Z,6.30
2018-04-04T06:09:00.605Z,6.80
2018-04-04T06:11:28.087Z,5.93
2018-04-04T06:13:56.561Z,5.70
2018-04-04T06:16:24.997Z,6.40
2018-04-04T06:18:52.486Z,6.87
2018-04-04T06:21:20.415Z,7.23
2018-04-04T06:23:48.004Z,7.97
2018-04-04T06:26:15.589Z,7.70
2018-04-04T06:28:43.177Z,8.10
2018-04-04T06:31:10.823Z,7.00
2018-04-04T06:33:38.702Z,6.50
2018-04-04T06:36:06.208Z,6.33
2018-04-04T06:38:35.240Z,6.03
2018-04-04T06:41:02.860Z,6.13
2018-04-04T06:43:30.315Z,5.13
2018-04-04T06:45:57.787Z,5.83
2018-04-04T06:48:25.259Z,5.33
2018-04-04T06:50:52.949Z,6.40
2018-04-04T06:53:20.431Z,4.90
2018-04-04T06:55:47.927Z,5.20
2018-04-04T06:58:16.456Z,5.60
2018-04-04T07:00:43.938Z,6.23
2018-04-04T07:03:11.507Z,6.10
2018-04-04T07:05:38.991Z,6.23
2018-04-04T07:08:06.623Z,5.60
2018-04-04T07:10:34.196Z,5.83
2018-04-04T07:13:01.661Z,5.93
2018-04-04T07:15:29.195Z,5.33
2018-04-04T07:17:56.758Z,6.87
2018-04-04T07:20:24.486Z,7.20
2018-04-04T07:22:51.965Z,6.23
2018-04-04T07:25:19.724Z,6.47
2018-04-04T07:27:47.211Z,7.00
2018-04-04T07:30:14.712Z,7.50
2018-04-04T07:32:42.181Z,6.70
2018-04-04T07:35:10.270Z,6.90
2018-04-04T07:37:37.741Z,6.27
2018-04-04T07:40:05.376Z,6.63
2018-04-04T07:42:33.326Z,7.40
2018-04-04T07:45:00.852Z,6.77
2018-04-04T07:47:28.340Z,7.53
2018-04-04T07:49:55.830Z,6.63
2018-04-04T07:52:23.361Z,6.40
2018-04-04T07:54:50.825Z,5.77
2018-04-04T07:57:18.344Z,6.87
2018-04-04T07:59:46.593Z,5.90
2018-04-04T08:02:14.723Z,6.47
2018-04-04T08:04:42.246Z,5.80
2018-04-04T08:07:09.867Z,6.63
2018-04-04T08:09:37.415Z,6.30
2018-04-04T08:12:04.936Z,6.03
2018-04-04T08:14:32.403Z,5.70
2018-04-04T08:16:59.879Z,6.00
2018-04-04T08:19:27.424Z,6.17
2018-04-04T08:21:55.138Z,5.80
2018-04-04T08:24:22.639Z,5.50
2018-04-04T08:26:51.037Z,5.63
2018-04-04T08:29:19.187Z,6.00
2018-04-04T08:31:46.782Z,6.07
2018-04-04T08:34:14.700Z,7.03
2018-04-04T08:36:43.520Z,5.30
2018-04-04T08:39:10.989Z,5.60
2018-04-04T08:41:38.473Z,5.87
2018-04-04T08:44:06.369Z,5.70
2018-04-04T08:46:34.465Z,5.37
2018-04-04T08:49:02.249Z,5.20
2018-04-04T08:51:29.899Z,6.37
2018-04-04T08:53:59.685Z,5.50
2018-04-04T08:56:27.505Z,5.90
2018-04-04T08:58:54.999Z,5.30
2018-04-04T09:01:22.469Z,5.60
2018-04-04T09:03:49.961Z,5.37
2018-04-04T09:06:18.328Z,4.63
2018-04-04T09:08:45.843Z,4.33
2018-04-04T09:11:13.781Z,4.77
2018-04-04T09:13:41.331Z,4.27
2018-04-04T09:16:08.821Z,3.50
2018-04-04T09:18:36.310Z,4.10
2018-04-04T09:21:04.665Z,3.63
2018-04-04T09:23:32.296Z,4.07
2018-04-04T09:26:00.510Z,3.77
2018-04-04T09:28:28.472Z,3.83
2018-04-04T09:30:56.438Z,4.23
2018-04-04T09:33:24.505Z,4.30
2018-04-04T09:35:51.970Z,3.70
2018-04-04T09:38:19.732Z,4.10
2018-04-04T09:40:47.981Z,3.93
2018-04-04T09:43:15.442Z,3.70
2018-04-04T09:45:43.214Z,3.37
2018-04-04T09:48:10.678Z,3.00
2018-04-04T09:50:38.532Z,3.37
2018-04-04T09:53:06.402Z,3.17
2018-04-04T09:55:34.078Z,3.00
2018-04-04T09:58:02.099Z,2.90
2018-04-04T10:00:29.653Z,2.57
2018-04-04T10:02:57.563Z,2.57
2018-04-04T10:05:25.927Z,2.77
2018-04-04T10:07:54.389Z,3.00
2018-04-04T10:10:21.862Z,2.37
2018-04-04T10:12:49.332Z,1.97
2018-04-04T10:15:17.231Z,2.77
2018-04-04T10:17:45.669Z,2.00
2018-04-04T10:20:14.088Z,2.50
2018-04-04T10:22:41.916Z,2.80
2018-04-04T10:25:10.401Z,2.80
2018-04-04T10:27:38.051Z,2.23
2018-04-04T10:30:05.632Z,2.60
2018-04-04T10:32:33.196Z,2.73
2018-04-04T10:35:01.763Z,2.30
2018-04-04T10:37:30.219Z,2.37
2018-04-04T10:40:01.816Z,2.43
2018-04-04T10:42:30.149Z,2.87
2018-04-04T10:44:57.690Z,2.83
2018-04-04T10:47:25.704Z,2.57
2018-04-04T10:49:55.256Z,2.03
2018-04-04T10:52:22.762Z,2.63
2018-04-04T10:54:52.336Z,2.47
2018-04-04T10:59:51.539Z,2.47
2018-04-04T11:02:19.232Z,3.10
2018-04-04T11:04:47.894Z,2.77
2018-04-04T11:07:16.234Z,2.97
2018-04-04T11:09:44.047Z,2.60
2018-04-04T11:12:11.868Z,3.00
2018-04-04T11:14:39.645Z,2.67
2018-04-04T11:17:07.244Z,2.60
2018-04-04T11:19:35.899Z,2.73
2018-04-04T11:22:03.732Z,2.10
2018-04-04T11:24:31.982Z,2.33
2018-04-04T11:27:00.072Z,2.10
2018-04-04T11:29:27.564Z,1.80
2018-04-04T11:31:55.042Z,1.30
2018-04-04T11:34:22.578Z,1.77
2018-04-04T11:36:50.079Z,2.57
2018-04-04T11:39:17.708Z,1.80
2018-04-04T11:41:45.287Z,1.80
2018-04-04T11:44:13.763Z,1.17
2018-04-04T11:46:41.389Z,1.30
2018-04-04T11:49:09.329Z,0.97
2018-04-04T11:51:36.778Z,0.97
2018-04-04T11:54:04.288Z,0.90
2018-04-04T11:56:31.799Z,1.03
2018-04-04T11:59:00.194Z,0.90
2018-04-04T12:01:27.654Z,1.10
2018-04-04T12:03:55.600Z,0.90
2018-04-04T12:06:24.202Z,1.27
2018-04-04T12:08:51.800Z,1.13
2018-04-04T12:11:20.654Z,1.10
2018-04-04T12:13:48.134Z,1.00
2018-04-04T12:16:15.575Z,0.93
2018-04-04T12:18:43.077Z,1.03
2018-04-04T12:21:10.585Z,0.90
2018-04-04T12:23:38.442Z,1.40
2018-04-04T12:26:06.040Z,1.33
2018-04-04T12:28:33.574Z,1.27
2018-04-04T12:31:01.068Z,1.37
2018-04-04T12:33:29.607Z,1.27
2018-04-04T12:35:57.120Z,1.30
2018-04-04T12:38:25.066Z,1.00
2018-04-04T12:40:53.748Z,1.20
2018-04-04T12:43:22.088Z,1.10
2018-04-04T12:45:50.486Z,1.53
2018-04-04T12:48:18.218Z,1.20
2018-04-04T12:50:45.751Z,1.27
2018-04-04T12:53:13.396Z,1.40
2018-04-04T12:55:41.015Z,1.40
2018-04-04T12:58:09.000Z,1.50
2018-04-04T13:00:37.070Z,1.40
2018-04-04T13:03:04.669Z,1.53
2018-04-04T13:05:32.191Z,1.17
2018-04-04T13:08:00.078Z,1.70
2018-04-04T13:10:27.790Z,1.60
2018-04-04T13:12:56.197Z,1.60
2018-04-04T13:15:24.992Z,3.57
2018-04-04T13:17:53.803Z,2.80
2018-04-04T13:20:21.222Z,2.60
2018-04-04T13:22:49.577Z,2.50
2018-04-04T13:25:17.086Z,2.27
2018-04-04T13:27:44.942Z,2.50
2018-04-04T13:30:12.628Z,3.00
2018-04-04T13:32:40.143Z,2.90
2018-04-04T13:35:07.740Z,2.80
2018-04-04T13:37:38.857Z,2.83
2018-04-04T13:40:07.027Z,3.33
2018-04-04T13:42:34.897Z,3.30
2018-04-04T13:45:04.170Z,3.40
2018-04-04T13:47:31.692Z,3.30
2018-04-04T13:49:59.416Z,3.83
2018-04-04T13:52:27.881Z,3.70
2018-04-04T13:54:58.575Z,2.73
2018-04-04T13:57:28.460Z,2.00
2018-04-04T13:59:56.429Z,1.07
2018-04-04T14:02:24.530Z,1.07
2018-04-04T14:04:52.001Z,1.30
2018-04-04T14:07:19.874Z,0.87
2018-04-04T14:09:47.469Z,1.00
2018-04-04T14:12:16.567Z,1.00
2018-04-04T14:14:44.038Z,1.23
2018-04-04T14:17:12.319Z,1.00
2018-04-04T14:19:40.448Z,1.20
2018-04-04T14:22:08.112Z,1.10
2018-04-04T14:24:36.122Z,0.90
2018-04-04T14:27:03.994Z,1.20
2018-04-04T14:29:31.496Z,1.20
2018-04-04T14:31:58.989Z,1.10
2018-04-04T14:34:26.558Z,1.00
2018-04-04T14:36:54.673Z,0.90
2018-04-04T14:39:22.404Z,1.00
2018-04-04T14:41:49.867Z,1.30
2018-04-04T14:44:17.479Z,1.27
2018-04-04T14:46:45.091Z,1.13
2018-04-04T14:49:12.610Z,1.10
2018-04-04T14:51:41.039Z,0.90
2018-04-04T14:54:08.575Z,1.10
2018-04-04T14:56:36.105Z,0.83
2018-04-04T14:59:03.553Z,0.90
2018-04-04T15:01:33.223Z,0.90
2018-04-04T15:04:01.159Z,1.07
2018-04-04T15:06:28.649Z,0.97
2018-04-04T15:08:58.545Z,1.10
2018-04-04T15:11:26.021Z,0.87
2018-04-04T15:13:53.476Z,1.20
2018-04-04T15:16:21.002Z,0.87
2018-04-04T15:18:48.556Z,0.87
2018-04-04T15:21:16.120Z,0.80
2018-04-04T15:23:43.790Z,0.60
2018-04-04T15:26:11.342Z,0.60
2018-04-04T15:28:38.807Z,0.70
2018-04-04T15:31:06.327Z,0.70
2018-04-04T15:33:33.920Z,1.10
2018-04-04T15:36:01.560Z,0.80
2018-04-04T15:38:29.174Z,0.80
2018-04-04T15:40:57.531Z,0.70
2018-04-04T15:43:25.192Z,0.70
2018-04-04T15:45:52.789Z,0.90
2018-04-04T15:48:20.694Z,0.80
2018-04-04T15:50:48.625Z,0.70
2018-04-04T15:53:16.101Z,0.90
2018-04-04T15:55:44.362Z,0.90
2018-04-04T15:58:12.182Z,1.67
2018-04-04T16:00:41.585Z,1.30
2018-04-04T16:03:09.081Z,1.27
2018-04-04T16:05:36.573Z,1.10
2018-04-04T16:08:04.860Z,0.97
2018-04-04T16:10:35.199Z,0.90
2018-04-04T16:13:03.406Z,1.10
2018-04-04T16:15:31.788Z,1.40
2018-04-04T16:17:59.636Z,1.53
2018-04-04T16:20:28.042Z,1.27
2018-04-04T16:22:57.111Z,1.30
2018-04-04T16:25:24.826Z,0.90
2018-04-04T16:27:52.881Z,1.80
2018-04-04T16:30:20.458Z,1.60
2018-04-04T16:32:47.977Z,2.00
2018-04-04T16:35:15.541Z,1.43
2018-04-04T16:37:42.978Z,1.37
2018-04-04T16:40:10.471Z,1.40
2018-04-04T16:42:38.111Z,1.17
2018-04-04T16:45:05.634Z,1.10
2018-04-04T16:47:33.438Z,0.90
2018-04-04T16:50:01.368Z,1.10
2018-04-04T16:52:28.892Z,1.00
2018-04-04T16:54:57.266Z,1.10
2018-04-04T16:57:25.596Z,1.10
2018-04-04T16:59:53.107Z,1.07
2018-04-04T17:02:20.651Z,1.50
2018-04-04T17:04:48.774Z,1.40
2018-04-04T17:07:16.296Z,1.00
2018-04-04T17:09:43.807Z,1.30
2018-04-04T17:12:12.077Z,1.57
2018-04-04T17:14:39.575Z,1.10
2018-04-04T17:17:07.064Z,1.50
2018-04-04T17:19:34.633Z,1.07
2018-04-04T17:22:02.892Z,1.37
2018-04-04T17:24:30.363Z,1.20
2018-04-04T17:26:58.289Z,1.17
2018-04-04T17:29:25.819Z,1.00
2018-04-04T17:31:53.284Z,1.20
2018-04-04T17:34:20.811Z,0.90
2018-04-04T17:36:48.350Z,0.90
2018-04-04T17:39:15.959Z,1.03
2018-04-04T17:41:44.517Z,1.07
2018-04-04T17:44:12.059Z,1.20
2018-04-04T17:46:39.568Z,0.90
2018-04-04T17:49:07.178Z,1.20
2018-04-04T17:51:34.877Z,1.17
2018-04-04T17:54:02.830Z,1.10
2018-04-04T17:56:30.478Z,1.20
2018-04-04T17:58:58.777Z,1.30
2018-04-04T18:01:26.346Z,1.77
2018-04-04T18:03:53.812Z,0.90
2018-04-04T18:06:21.357Z,1.30
2018-04-04T18:08:49.617Z,1.20
2018-04-04T18:11:18.534Z,1.50
2018-04-04T18:13:46.093Z,1.03
2018-04-04T18:16:13.690Z,1.43
2018-04-04T18:18:41.604Z,1.30
2018-04-04T18:21:09.181Z,1.50
2018-04-04T18:23:36.705Z,1.10
2018-04-04T18:26:04.468Z,1.40
2018-04-04T18:28:32.140Z,1.53
2018-04-04T18:30:59.579Z,1.40
2018-04-04T18:33:27.252Z,2.23
2018-04-04T18:35:55.031Z,1.53
2018-04-04T18:38:22.533Z,1.30
2018-04-04T18:40:50.333Z,1.30
2018-04-04T18:43:17.819Z,1.50
2018-04-04T18:45:45.687Z,1.57
2018-04-04T18:48:13.176Z,1.60
2018-04-04T18:50:40.820Z,1.27
2018-04-04T18:53:08.279Z,1.23
2018-04-04T18:55:35.749Z,1.20
2018-04-04T18:58:03.273Z,1.30
2018-04-04T19:00:30.761Z,1.20
2018-04-04T19:02:58.225Z,1.50
2018-04-04T19:05:25.738Z,1.40
2018-04-04T19:07:53.219Z,1.30
2018-04-04T19:10:20.758Z,1.53
2018-04-04T19:12:49.711Z,1.37
2018-04-04T19:15:17.227Z,1.20
2018-04-04T19:17:44.683Z,1.10
2018-04-04T19:20:12.193Z,1.30
2018-04-04T19:22:39.749Z,1.30
2018-04-04T19:25:08.371Z,1.40
2018-04-04T19:27:36.459Z,1.20
2018-04-04T19:30:04.616Z,1.40
2018-04-04T19:32:32.345Z,1.30
2018-04-04T19:34:59.828Z,1.30
2018-04-04T19:37:27.598Z,1.40
2018-04-04T19:39:55.486Z,1.30
2018-04-04T19:42:23.140Z,1.60
2018-04-04T19:44:50.624Z,1.33
2018-04-04T19:47:18.150Z,1.63
2018-04-04T19:49:45.638Z,1.40
2018-04-04T19:52:13.865Z,1.53
2018-04-04T19:54:42.014Z,1.60
2018-04-04T19:57:10.176Z,1.70
2018-04-04T19:59:37.703Z,1.83
2018-04-04T20:02:05.800Z,1.30
2018-04-04T20:04:33.323Z,1.50
2018-04-04T20:07:00.762Z,1.40
2018-04-04T20:09:28.367Z,1.90
2018-04-04T20:11:57.010Z,1.50
2018-04-04T20:14:24.569Z,1.37
2018-04-04T20:16:52.336Z,1.47
2018-04-04T20:19:19.826Z,1.57
2018-04-04T20:21:47.375Z,1.20
2018-04-04T20:24:15.483Z,1.23
2018-04-04T20:26:43.603Z,1.10
2018-04-04T20:29:11.050Z,1.37
2018-04-04T20:31:38.907Z,1.40
2018-04-04T20:34:06.612Z,1.20
2018-04-04T20:36:34.271Z,1.70
2018-04-04T20:41:35.991Z,1.40
2018-04-04T20:44:03.450Z,1.50
2018-04-04T20:46:30.958Z,1.23
2018-04-04T20:48:58.515Z,1.20
2018-04-04T20:51:27.256Z,1.10
2018-04-04T20:53:54.734Z,1.40
2018-04-04T20:56:23.168Z,1.10
2018-04-04T20:58:51.112Z,1.20
2018-04-04T21:01:18.961Z,1.30
2018-04-04T21:03:46.513Z,1.20
2018-04-04T21:06:14.803Z,1.57
2018-04-04T21:08:42.776Z,1.30
2018-04-04T21:11:10.466Z,1.47
2018-04-04T21:13:38.791Z,1.57
2018-04-04T21:16:06.877Z,1.30
2018-04-04T21:18:35.140Z,1.30
2018-04-04T21:21:02.662Z,1.20
2018-04-04T21:23:31.928Z,1.40
2018-04-04T21:26:00.243Z,1.40
2018-04-04T21:28:28.086Z,1.50
2018-04-04T21:30:56.468Z,1.60
2018-04-04T21:33:24.706Z,1.20
2018-04-04T21:35:53.383Z,1.50
2018-04-04T21:38:21.192Z,1.40
2018-04-04T21:40:50.680Z,1.60
2018-04-04T21:43:18.654Z,1.43
2018-04-04T21:45:47.352Z,1.67
2018-04-04T21:48:14.899Z,1.50
2018-04-04T21:50:42.948Z,1.40
2018-04-04T21:53:10.407Z,1.70
2018-04-04T21:55:37.916Z,1.57
2018-04-04T21:58:05.393Z,1.60
2018-04-04T22:00:33.774Z,1.70
2018-04-04T22:03:01.359Z,1.43
2018-04-04T22:05:29.938Z,1.70
2018-04-04T22:07:59.690Z,1.57
2018-04-04T22:10:27.434Z,1.27
2018-04-04T22:12:55.013Z,1.53
2018-04-04T22:15:25.180Z,2.07
2018-04-04T22:17:56.084Z,1.70
2018-04-04T22:20:25.672Z,1.80
2018-04-04T22:22:56.166Z,1.70
2018-04-04T22:25:25.337Z,1.80
2018-04-04T22:27:55.864Z,1.60
2018-04-04T22:30:29.968Z,1.50
2018-04-04T22:32:59.725Z,1.53
2018-04-04T22:35:29.099Z,1.57
2018-04-04T22:37:59.708Z,1.43
2018-04-04T22:40:31.523Z,1.20
2018-04-04T22:43:01.227Z,1.20
2018-04-04T22:45:30.756Z,1.50
2018-04-04T22:48:01.200Z,1.67
2018-04-04T22:50:32.124Z,1.80
2018-04-04T22:53:02.096Z,1.50
2018-04-04T22:55:32.470Z,1.43
2018-04-04T22:58:03.355Z,1.40
2018-04-04T23:00:36.617Z,1.30
2018-04-04T23:03:07.516Z,1.40
2018-04-04T23:05:38.739Z,1.60
2018-04-04T23:10:43.462Z,1.37
2018-04-04T23:13:15.965Z,1.40
2018-04-04T23:15:46.850Z,1.50
2018-04-04T23:18:16.233Z,1.30
2018-04-04T23:20:45.794Z,1.13
2018-04-04T23:23:15.505Z,1.20
2018-04-04T23:25:44.720Z,1.00
2018-04-04T23:28:18.150Z,1.40
2018-04-04T23:33:22.284Z,1.10
2018-04-04T23:35:52.898Z,1.13
2018-04-04T23:38:24.699Z,1.10
2018-04-04T23:40:59.041Z,0.90
2018-04-04T23:43:32.415Z,0.90
2018-04-04T23:46:02.918Z,1.30
2018-04-04T23:48:34.102Z,0.80
2018-04-04T23:51:03.897Z,1.27
2018-04-04T23:53:33.286Z,1.00
2018-04-04T23:56:03.896Z,1.00
2018-04-04T23:58:33.526Z,0.93
